createdAt,value
2019-05-14T00:07:22.818Z,1.00
2019-05-14T00:10:11.789Z,0.77
2019-05-14T00:12:57.313Z,0.90
2019-05-14T00:15:44.944Z,0.87
2019-05-14T00:18:31.739Z,1.30
2019-05-14T00:21:18.219Z,1.10
2019-05-14T00:24:05.171Z,0.90
2019-05-14T00:26:52.187Z,1.17
2019-05-14T00:29:41.446Z,0.97
2019-05-14T00:32:26.315Z,0.83
2019-05-14T00:35:15.790Z,0.90
2019-05-14T00:41:11.136Z,1.00
2019-05-14T00:43:56.107Z,1.03
2019-05-14T00:46:43.353Z,1.10
2019-05-14T00:49:31.682Z,1.07
2019-05-14T00:52:17.276Z,0.90
2019-05-14T00:55:04.313Z,1.27
2019-05-14T01:13:22.118Z,0.90
2019-05-14T01:16:09.284Z,0.90
2019-05-14T01:22:09.263Z,1.10
2019-05-14T01:24:56.607Z,1.37
2019-05-14T01:49:27.979Z,1.23
2019-05-14T01:52:14.747Z,0.97
2019-05-14T01:55:02.151Z,1.17
2019-05-14T02:01:02.420Z,1.07
2019-05-14T02:19:22.324Z,1.20
2019-05-14T02:22:11.292Z,1.40
2019-05-14T02:31:23.532Z,0.93
2019-05-14T02:34:10.579Z,1.03
2019-05-14T03:20:24.186Z,1.30
2019-05-14T03:23:18.116Z,1.63
2019-05-14T03:26:00.508Z,1.97
2019-05-14T03:28:44.645Z,1.43
2019-05-14T03:50:10.280Z,2.00
2019-05-14T03:52:55.662Z,1.90
2019-05-14T03:55:42.396Z,2.17
2019-05-14T03:58:30.380Z,2.10
2019-05-14T04:01:19.906Z,1.80
2019-05-14T04:04:03.101Z,2.00
2019-05-14T04:13:03.320Z,2.47
2019-05-14T04:15:50.879Z,2.00
2019-05-14T04:18:40.429Z,1.90
2019-05-14T04:21:24.898Z,1.63
2019-05-14T04:27:20.300Z,2.40
2019-05-14T04:30:24.198Z,2.80
2019-05-14T04:33:10.632Z,2.33
2019-05-14T04:35:59.998Z,2.23
2019-05-14T04:38:44.556Z,2.20
2019-05-14T04:41:32.136Z,2.10
2019-05-14T04:44:19.414Z,1.87
2019-05-14T04:47:25.284Z,2.40
2019-05-14T04:49:52.836Z,2.57
2019-05-14T04:52:40.617Z,2.20
2019-05-14T04:58:49.623Z,2.23
2019-05-14T05:01:34.176Z,2.17
2019-05-14T05:04:20.928Z,2.20
2019-05-14T05:07:09.889Z,1.93
2019-05-14T05:09:54.631Z,2.00
2019-05-14T05:12:49.325Z,1.73
2019-05-14T05:15:34.715Z,1.90
2019-05-14T05:18:21.423Z,1.80
2019-05-14T05:21:08.835Z,2.30
2019-05-14T05:23:55.373Z,2.27
2019-05-14T05:33:01.953Z,2.27
2019-05-14T05:45:14.966Z,1.70
2019-05-14T05:48:09.402Z,1.90
2019-05-14T05:50:58.843Z,1.80
2019-05-14T05:53:43.582Z,2.25
2019-05-14T06:02:44.436Z,1.90
2019-05-14T06:08:39.259Z,2.00
2019-05-14T06:14:48.821Z,1.73
2019-05-14T06:20:49.398Z,1.33
2019-05-14T06:29:54.486Z,1.23
2019-05-14T06:45:22.026Z,1.40
2019-05-14T06:54:21.995Z,1.83
2019-05-14T06:57:09.157Z,1.50
2019-05-14T07:03:17.996Z,1.40
2019-05-14T07:06:04.460Z,1.80
2019-05-14T07:15:18.262Z,1.73
2019-05-14T07:36:58.737Z,1.48
2019-05-14T07:39:43.546Z,1.60
2019-05-14T07:42:44.970Z,1.67
2019-05-14T07:45:33.460Z,1.87
2019-05-14T07:48:19.093Z,2.45
2019-05-14T07:51:08.448Z,1.48
2019-05-14T07:53:53.736Z,1.62
2019-05-14T08:06:14.050Z,1.50
2019-05-14T08:09:15.520Z,1.42
2019-05-14T08:12:02.294Z,1.20
2019-05-14T08:24:26.945Z,1.00
2019-05-14T08:27:08.706Z,0.80
2019-05-14T08:29:58.911Z,1.05
2019-05-14T08:32:44.246Z,0.85
2019-05-14T08:38:38.312Z,0.70
2019-05-14T08:41:24.627Z,1.00
2019-05-14T08:47:25.246Z,0.70
2019-05-14T08:50:19.215Z,1.00
2019-05-14T08:53:05.874Z,0.95
2019-05-14T08:58:59.171Z,1.23
2019-05-14T09:02:00.840Z,1.40
2019-05-14T09:04:34.708Z,0.88
2019-05-14T09:07:21.775Z,0.80
2019-05-14T09:10:08.844Z,1.27
2019-05-14T09:16:19.419Z,0.90
2019-05-14T09:19:04.552Z,0.80
2019-05-14T09:21:51.850Z,0.80
2019-05-14T09:37:04.275Z,0.88
2019-05-14T09:46:18.685Z,0.75
2019-05-14T09:49:05.195Z,1.00
2019-05-14T09:55:06.130Z,0.95
2019-05-14T10:01:13.475Z,0.90
2019-05-14T10:10:14.459Z,1.00
2019-05-14T10:19:15.187Z,1.02
2019-05-14T10:22:02.701Z,1.12
2019-05-14T10:46:39.583Z,0.93
2019-05-14T10:49:29.701Z,0.90
2019-05-14T10:52:14.133Z,1.00
2019-05-14T10:55:01.264Z,0.90
2019-05-14T10:57:53.950Z,1.00
2019-05-14T11:00:36.069Z,1.10
2019-05-14T11:03:23.238Z,1.40
2019-05-14T11:40:19.091Z,1.20
2019-05-14T11:43:08.264Z,1.17
2019-05-14T11:45:52.855Z,1.20
2019-05-14T11:48:40.865Z,1.05
2019-05-14T11:57:39.798Z,1.05
2019-05-14T12:00:29.335Z,0.80
2019-05-14T12:03:13.887Z,1.00
2019-05-14T12:09:11.447Z,0.90
2019-05-14T12:12:12.579Z,1.20
2019-05-14T12:18:02.222Z,0.50
2019-05-14T12:20:49.860Z,0.57
2019-05-14T12:23:36.037Z,0.93
2019-05-14T12:26:23.076Z,0.60
2019-05-14T12:29:10.274Z,1.00
2019-05-14T12:35:19.687Z,1.20
2019-05-14T12:38:04.480Z,0.85
2019-05-14T12:40:51.372Z,0.80
2019-05-14T12:43:39.747Z,0.60
2019-05-14T12:46:25.025Z,0.90
2019-05-14T12:49:12.314Z,0.98
2019-05-14T12:55:05.862Z,0.80
2019-05-14T13:01:13.919Z,0.93
2019-05-14T13:04:01.464Z,0.60
2019-05-14T13:06:48.656Z,1.00
2019-05-14T13:09:38.316Z,0.60
2019-05-14T13:21:40.845Z,0.70
2019-05-14T13:30:39.957Z,0.62
2019-05-14T13:36:32.495Z,0.60
2019-05-14T13:45:32.873Z,0.70
2019-05-14T13:48:19.990Z,0.40
2019-05-14T13:51:08.981Z,0.50
2019-05-14T13:53:54.744Z,0.88
2019-05-14T13:56:41.550Z,0.73
2019-05-14T13:59:28.773Z,0.52
2019-05-14T14:02:18.930Z,0.50
2019-05-14T14:05:03.490Z,0.60
2019-05-14T14:14:20.231Z,0.90
2019-05-14T14:17:06.933Z,0.50
2019-05-14T14:19:53.698Z,0.60
2019-05-14T14:22:54.986Z,0.40
2019-05-14T14:31:53.895Z,0.50
2019-05-14T14:34:41.618Z,0.60
2019-05-14T14:37:42.866Z,0.77
2019-05-14T14:43:35.625Z,0.70
2019-05-14T14:46:22.456Z,0.60
2019-05-14T14:49:10.930Z,0.50
2019-05-14T14:51:58.894Z,0.70
2019-05-14T14:54:44.301Z,0.70
2019-05-14T14:57:31.304Z,0.80
2019-05-14T15:00:19.364Z,0.50
2019-05-14T15:03:05.858Z,0.40
2019-05-14T15:05:52.683Z,0.50
2019-05-14T15:08:40.151Z,0.40
2019-05-14T15:11:29.351Z,0.62
2019-05-14T15:14:15.331Z,0.55
2019-05-14T15:17:03.297Z,0.60
2019-05-14T15:19:50.605Z,0.40
2019-05-14T15:22:37.643Z,0.60
2019-05-14T15:25:28.933Z,0.60
2019-05-14T15:28:14.853Z,0.60
2019-05-14T15:31:18.936Z,0.80
2019-05-14T15:34:02.957Z,0.88
2019-05-14T15:36:50.198Z,0.70
2019-05-14T15:45:49.127Z,0.82
2019-05-14T15:54:50.536Z,0.70
2019-05-14T15:57:43.041Z,5.32
2019-05-14T16:00:30.363Z,0.52
2019-05-14T16:21:55.368Z,0.90
2019-05-14T16:24:55.710Z,0.82
2019-05-14T16:39:57.920Z,0.73
2019-05-14T16:42:44.711Z,0.82
2019-05-14T16:45:31.815Z,0.75
2019-05-14T16:51:32.523Z,0.80
2019-05-14T16:54:19.811Z,0.80
2019-05-14T17:34:22.416Z,0.88
2019-05-14T17:37:11.172Z,0.80
2019-05-14T17:39:59.179Z,0.60
2019-05-14T17:42:48.715Z,0.82
2019-05-14T17:45:40.839Z,0.70
2019-05-14T18:07:05.036Z,0.60
2019-05-14T18:13:08.872Z,0.62
2019-05-14T18:15:53.391Z,0.68
2019-05-14T18:18:40.302Z,0.60
2019-05-14T18:24:33.768Z,0.90
2019-05-14T18:27:38.762Z,0.70
2019-05-14T18:30:23.075Z,0.77
2019-05-14T18:33:10.364Z,0.65
2019-05-14T18:36:04.204Z,0.70
2019-05-14T18:38:51.066Z,0.80
2019-05-14T18:41:45.589Z,0.80
2019-05-14T18:44:49.279Z,0.65
2019-05-14T18:47:34.342Z,0.80
2019-05-14T18:56:48.938Z,1.15
2019-05-14T18:59:35.033Z,1.12
2019-05-14T19:08:34.000Z,1.10
2019-05-14T19:17:48.863Z,1.07
2019-05-14T19:29:53.568Z,0.90
2019-05-14T19:32:55.433Z,0.90
2019-05-14T19:35:49.810Z,1.00
2019-05-14T19:38:38.903Z,0.80
2019-05-14T19:41:24.138Z,0.93
2019-05-14T19:50:38.698Z,0.73
2019-05-14T19:53:24.813Z,1.00
2019-05-14T20:02:23.490Z,0.80
2019-05-14T20:05:10.527Z,0.90
2019-05-14T20:07:58.140Z,1.13
2019-05-14T20:26:14.609Z,0.70
2019-05-14T20:29:01.411Z,0.70
2019-05-14T20:31:48.339Z,0.90
2019-05-14T20:34:37.871Z,1.07
2019-05-14T20:37:24.841Z,0.53
2019-05-14T20:55:59.994Z,0.97
2019-05-14T20:58:48.156Z,0.90
2019-05-14T21:01:34.657Z,0.80
2019-05-14T21:04:22.226Z,0.90
2019-05-14T21:16:28.275Z,0.90
2019-05-14T21:19:14.517Z,1.00
2019-05-14T21:22:02.061Z,0.93
2019-05-14T21:37:19.742Z,0.87
2019-05-14T21:40:08.979Z,0.90
2019-05-14T21:49:07.640Z,0.77
2019-05-14T21:58:21.227Z,1.03
2019-05-14T22:01:08.060Z,1.00
2019-05-14T22:03:55.659Z,0.90
2019-05-14T22:06:42.608Z,0.77
2019-05-14T22:09:29.470Z,0.97
2019-05-14T22:12:20.309Z,0.90
2019-05-14T22:15:13.461Z,0.90
2019-05-14T22:21:22.784Z,0.83
2019-05-14T22:33:34.494Z,0.87
2019-05-14T22:36:21.601Z,0.90
2019-05-14T22:39:08.536Z,0.80
2019-05-14T22:45:01.681Z,1.00
2019-05-14T22:50:59.137Z,0.50
2019-05-14T22:53:50.720Z,1.10
2019-05-14T22:59:43.764Z,1.07
2019-05-14T23:05:39.370Z,0.77
2019-05-14T23:08:25.574Z,0.90
2019-05-14T23:11:13.492Z,0.97
2019-05-14T23:14:00.946Z,1.03
2019-05-14T23:16:49.175Z,1.03
2019-05-14T23:19:34.774Z,1.03
2019-05-14T23:22:22.283Z,1.10
2019-05-14T23:25:09.284Z,0.90
2019-05-14T23:27:56.124Z,0.93
2019-05-14T23:30:44.034Z,1.00
2019-05-14T23:33:30.886Z,1.00
2019-05-14T23:36:18.491Z,1.20
2019-05-14T23:39:08.880Z,0.90
2019-05-14T23:41:53.853Z,1.00
2019-05-14T23:44:40.901Z,0.97
2019-05-14T23:47:29.032Z,1.52
2019-05-14T23:50:16.823Z,0.90
2019-05-14T23:53:03.957Z,1.00
2019-05-14T23:55:50.776Z,1.03
2019-05-14T23:58:37.931Z,1.10
